KAIA/AIA METAR and TAF weather

Enter ICAO airport designator
Station Type Date Time Source
KAIA METAR 2021/07/30 23:53 UTC NOAA

KAIA 302353Z AUTO 01011KT 5SM HZ CLR 32/18 A3011 RMK AO2 SLP144 T03220178 10333 20278 55006


Station Type Date Time Source
KAIA Decoded METAR 2021/07/30 23:53 UTC NOAA

ALLIANCE MUNICIPAL AIRPORT, NE, United States (KAIA) 42-03N 102-48W 1196M
Jul 30, 2021 - 07:53 PM EDT / 2021.07.30 2353 UTC
Wind: from the N (010 degrees) at 13 MPH (11 KT):0
Visibility: 5 mile(s):0
Sky conditions: clear
Weather: haze
Temperature: 90.0 F (32.2 C)
Dew Point: 64.0 F (17.8 C)
Relative Humidity: 42%
Pressure (altimeter): 30.11 in. Hg (1019 hPa)
Pressure tendency: 0.02 inches (0.6 hPa) lower than three hours ago
ob: KAIA 302353Z AUTO 01011KT 5SM HZ CLR 32/18 A3011 RMK AO2 SLP144 T03220178 10333 20278 55006
cycle: 0

Station Type Date Time Source
KAIA TAF 2021/07/30 18:45 UTC NOAA

TAF KAIA 301743Z 3018/3118 36014KT 5SM HZ SCT200
TEMPO 3018/3020 2SM FU
FM302200 03011KT 6SM HZ SCT250
FM310600 03009KT 6SM HZ BKN060
FM311100 36006KT 6SM HZ BKN045

Example: see airport list